createdAt,value
2023-03-25T00:04:37.341Z,25.1
2023-03-25T00:10:13.609Z,25.1
2023-03-25T00:15:34.335Z,25.1
2023-03-25T00:21:26.353Z,25.1
2023-03-25T00:26:47.187Z,25.1
2023-03-25T00:32:08.054Z,25.1
2023-03-25T00:38:00.627Z,25.1
2023-03-25T00:43:52.045Z,25.1
2023-03-25T00:49:29.509Z,25.1
2023-03-25T00:55:15.728Z,25.1
2023-03-25T01:01:07.021Z,25.1
2023-03-25T01:07:00.746Z,25.1
2023-03-25T01:12:37.034Z,25
2023-03-25T01:18:13.901Z,25
2023-03-25T01:23:50.475Z,25
2023-03-25T01:29:42.770Z,25.1
2023-03-25T01:35:18.887Z,25.1
2023-03-25T01:40:55.378Z,25
2023-03-25T01:46:27.152Z,25.1
2023-03-25T01:52:03.469Z,25
2023-03-25T01:57:39.272Z,25.1
2023-03-25T02:03:31.614Z,25
2023-03-25T02:09:07.758Z,25
2023-03-25T02:14:43.651Z,25.1
2023-03-25T02:20:36.329Z,25.1
2023-03-25T02:26:27.299Z,25.1
2023-03-25T02:32:03.130Z,25
2023-03-25T02:37:55.461Z,25
2023-03-25T02:43:31.409Z,25
2023-03-25T02:49:07.868Z,25
2023-03-25T02:54:59.512Z,25
2023-03-25T03:00:50.995Z,25
2023-03-25T03:06:42.775Z,25
2023-03-25T03:12:03.070Z,25
2023-03-25T03:17:39.476Z,25.1
2023-03-25T03:23:31.644Z,25.3
2023-03-25T03:29:23.245Z,25.4
2023-03-25T03:36:01.186Z,25.4
2023-03-25T03:41:53.107Z,25.4
2023-03-25T03:47:29.552Z,25.4
2023-03-25T03:53:05.507Z,25.3
2023-03-25T03:58:57.877Z,25.3
2023-03-25T04:04:49.820Z,25.3
2023-03-25T04:10:25.283Z,25.3
2023-03-25T04:16:16.965Z,25.2
2023-03-25T04:21:55.867Z,25.2
2023-03-25T04:27:31.866Z,25.1
2023-03-25T04:33:08.497Z,25.1
2023-03-25T04:39:00.143Z,25.1
2023-03-25T04:44:51.566Z,25.1
2023-03-25T04:50:12.587Z,25.1
2023-03-25T04:56:04.836Z,25.1
2023-03-25T05:01:56.482Z,25
2023-03-25T05:07:48.547Z,25
2023-03-25T05:13:39.712Z,25
2023-03-25T05:19:31.588Z,25
2023-03-25T05:25:07.774Z,25
2023-03-25T05:30:59.269Z,24.9
2023-03-25T05:36:52.341Z,24.9
2023-03-25T05:42:29.555Z,24.9
2023-03-25T05:48:21.605Z,24.9
2023-03-25T05:54:12.180Z,24.9
2023-03-25T06:00:08.605Z,24.9
2023-03-25T06:06:16.348Z,24.9
2023-03-25T06:12:07.105Z,26.5
2023-03-25T06:17:59.203Z,36.5
2023-03-25T06:23:51.263Z,34.8
2023-03-25T06:29:41.721Z,33.5
2023-03-25T06:35:55.070Z,40.7
2023-03-25T06:41:46.377Z,41.6
2023-03-25T06:47:22.552Z,42.4
2023-03-25T06:52:58.571Z,43.1
2023-03-25T06:58:50.822Z,43.9
2023-03-25T07:04:41.849Z,44.6
2023-03-25T07:10:35.454Z,45.5
2023-03-25T07:16:31.037Z,46.4
2023-03-25T07:22:25.441Z,47.3
2023-03-25T07:28:17.535Z,48.3
2023-03-25T07:34:10.246Z,49.3
2023-03-25T07:40:03.022Z,50.3
2023-03-25T07:46:01.338Z,51.3
2023-03-25T07:51:53.429Z,52.4
2023-03-25T07:57:46.350Z,53.6
2023-03-25T08:03:41.203Z,54.6
2023-03-25T08:09:35.101Z,55.6
2023-03-25T08:15:29.345Z,56.7
2023-03-25T08:21:21.620Z,57.8
2023-03-25T08:27:00.248Z,58.9
2023-03-25T08:32:52.828Z,59.1
2023-03-25T08:38:44.543Z,58.4
2023-03-25T08:44:20.786Z,58.1
2023-03-25T08:49:55.939Z,58.2
2023-03-25T08:55:16.251Z,59.8
2023-03-25T09:01:08.096Z,59.8
2023-03-25T09:13:15.437Z,61.9
2023-03-25T09:19:07.807Z,62.9
2023-03-25T09:25:01.343Z,61.8
2023-03-25T09:30:54.041Z,62.4
2023-03-25T09:36:31.158Z,63
2023-03-25T09:42:22.945Z,64.2
2023-03-25T09:48:22.048Z,63.8
2023-03-25T09:54:14.453Z,63.4
2023-03-25T10:00:06.602Z,63.9
2023-03-25T10:05:44.178Z,63.8
2023-03-25T10:11:05.136Z,63.9
2023-03-25T10:16:59.608Z,64.3
2023-03-25T10:22:51.513Z,63.9
2023-03-25T10:28:42.993Z,63.8
2023-03-25T10:34:36.129Z,64.8
2023-03-25T10:40:28.171Z,64.6
2023-03-25T10:46:20.340Z,65.7
2023-03-25T10:52:12.103Z,66.8
2023-03-25T10:58:03.841Z,67.4
2023-03-25T11:03:56.423Z,67.8
2023-03-25T11:10:02.146Z,68.4
2023-03-25T11:16:06.902Z,64.4
2023-03-25T11:21:46.467Z,65.3
2023-03-25T11:27:38.533Z,65.9
2023-03-25T11:33:30.624Z,67
2023-03-25T11:39:22.787Z,66.9
2023-03-25T11:45:14.797Z,66.1
2023-03-25T11:50:35.592Z,65.3
2023-03-25T11:56:12.045Z,62
2023-03-25T12:07:26.024Z,48.1
2023-03-25T12:13:04.666Z,48.3
2023-03-25T12:18:57.225Z,46.7
2023-03-25T12:24:49.962Z,45.1
2023-03-25T12:30:26.115Z,45.1
2023-03-25T12:36:18.165Z,45.2
2023-03-25T12:42:26.850Z,45.1
2023-03-25T12:48:19.167Z,44.8
2023-03-25T12:53:58.539Z,44.8
2023-03-25T12:59:19.640Z,44.8
2023-03-25T13:05:13.412Z,44.4
2023-03-25T13:11:04.748Z,43.8
2023-03-25T13:17:05.238Z,43.3
2023-03-25T13:22:47.552Z,42.9
2023-03-25T13:28:39.568Z,41.2
2023-03-25T13:34:32.750Z,40.3
2023-03-25T13:40:09.447Z,38
2023-03-25T13:46:04.459Z,36.5
2023-03-25T13:51:26.506Z,35.3
2023-03-25T13:57:19.889Z,34.3
2023-03-25T14:03:14.706Z,33.3
2023-03-25T14:09:07.067Z,32.5
2023-03-25T14:14:59.206Z,31.8
2023-03-25T14:20:20.502Z,31.3
2023-03-25T14:26:01.344Z,30.7
2023-03-25T14:31:53.459Z,30.3
2023-03-25T14:37:46.657Z,29.8
2023-03-25T14:43:36.066Z,29.4
2023-03-25T14:49:24.910Z,29.1
2023-03-25T14:55:03.619Z,28.8
2023-03-25T15:00:58.973Z,28.5
2023-03-25T15:06:51.411Z,28.3
2023-03-25T15:12:27.561Z,28.1
2023-03-25T15:18:19.386Z,27.9
2023-03-25T15:24:11.139Z,27.7
2023-03-25T15:30:03.021Z,27.5
2023-03-25T15:35:55.426Z,27.4
2023-03-25T15:42:00.368Z,27.3
2023-03-25T15:48:03.000Z,27.1
2023-03-25T15:53:59.687Z,27
2023-03-25T15:59:51.081Z,26.9
2023-03-25T16:05:42.596Z,26.8
2023-03-25T16:11:34.440Z,26.7
2023-03-25T16:17:25.943Z,26.6
2023-03-25T16:22:46.791Z,26.5
2023-03-25T16:28:40.877Z,26.4
2023-03-25T16:34:19.760Z,26.3
2023-03-25T16:39:55.509Z,26.3
2023-03-25T16:45:31.989Z,26.3
2023-03-25T16:51:09.858Z,26.2
2023-03-25T16:56:45.265Z,26.1
2023-03-25T17:02:38.041Z,26.1
2023-03-25T17:08:30.534Z,25.9
2023-03-25T17:14:21.581Z,25.9
2023-03-25T17:19:46.143Z,25.9
2023-03-25T17:25:38.548Z,25.9
2023-03-25T17:31:30.680Z,25.8
2023-03-25T17:37:24.020Z,25.8
2023-03-25T17:43:00.690Z,25.7
2023-03-25T17:48:53.754Z,25.6
2023-03-25T17:54:44.872Z,25.6
2023-03-25T18:00:36.502Z,25.6
2023-03-25T18:06:28.956Z,25.5
2023-03-25T18:12:20.209Z,25.5
2023-03-25T18:18:11.880Z,25.4
2023-03-25T18:24:01.176Z,25.4
2023-03-25T18:29:52.023Z,25.4
2023-03-25T18:35:43.663Z,25.3
2023-03-25T18:41:35.212Z,25.3
2023-03-25T18:47:11.177Z,25.3
2023-03-25T18:53:02.509Z,25.2
2023-03-25T18:58:37.569Z,25.2
2023-03-25T19:04:30.732Z,25.1
2023-03-25T19:10:35.865Z,25.1
2023-03-25T19:16:39.438Z,25.1
2023-03-25T19:22:39.519Z,25.1
2023-03-25T19:28:30.747Z,25
2023-03-25T19:34:22.953Z,25
2023-03-25T19:40:15.686Z,24.9
2023-03-25T19:45:53.021Z,24.9
2023-03-25T19:51:44.013Z,24.9
2023-03-25T19:57:20.401Z,24.9
2023-03-25T20:03:12.906Z,24.9
2023-03-25T20:08:49.460Z,24.8
2023-03-25T20:14:50.351Z,24.8
2023-03-25T20:20:27.184Z,24.8
2023-03-25T20:26:02.204Z,24.8
2023-03-25T20:31:23.362Z,24.8
2023-03-25T20:37:26.115Z,24.7
2023-03-25T20:43:34.081Z,24.6
2023-03-25T20:49:25.276Z,24.6
2023-03-25T20:55:17.297Z,24.6
2023-03-25T21:01:10.296Z,24.6
2023-03-25T21:06:56.487Z,24.6
2023-03-25T21:13:00.133Z,24.6
2023-03-25T21:18:52.163Z,24.5
2023-03-25T21:24:46.569Z,24.5
2023-03-25T21:30:24.812Z,24.5
2023-03-25T21:36:26.664Z,24.5
2023-03-25T21:42:27.326Z,24.4
2023-03-25T21:48:19.751Z,24.4
2023-03-25T21:54:14.021Z,24.4
2023-03-25T21:59:34.876Z,24.4
2023-03-25T22:04:56.923Z,24.4
2023-03-25T22:10:48.190Z,24.4
2023-03-25T22:16:39.494Z,24.4
2023-03-25T22:22:32.073Z,24.4
2023-03-25T22:28:10.752Z,24.4
2023-03-25T22:34:01.943Z,24.4
2023-03-25T22:45:30.163Z,24.4
2023-03-25T22:51:22.384Z,24.4
2023-03-25T22:57:15.720Z,24.3
2023-03-25T23:03:07.646Z,24.3
2023-03-25T23:08:39.175Z,24.3
2023-03-25T23:14:15.347Z,24.2
2023-03-25T23:20:08.918Z,24.1
2023-03-25T23:25:48.211Z,24.1
2023-03-25T23:31:40.080Z,24
2023-03-25T23:37:31.952Z,24
2023-03-25T23:43:09.092Z,23.9
2023-03-25T23:49:00.986Z,23.9
2023-03-25T23:54:21.114Z,23.9
2023-03-25T23:59:57.189Z,23.9
